Terminal Aerodrome Forecast
Issued by NWS

Home | Current Version | Previous Version | Text Only | Print | Product List | Glossary On
Versions: 1 2 3 4 5 6 7 8 9 10 11 12
000
FTUS44 KBMX 221137
TAFTOI
TAF
KTOI 221137Z 2212/2312 13007KT P6SM BKN250
     FM221500 13007KT P6SM BKN025
     FM221700 15010KT P6SM VCSH OVC015
     FM222000 17010G18KT 6SM -SHRA VCTS SCT007CB OVC012
      TEMPO 2220/2223 4SM TSRA BKN008 OVC012CB
     FM230400 24009KT P6SM BKN025=

USA.gov is the U.S. government's official web portal to all federal, state and local government web resources and services.